sensor_id;sensor_type;location;lat;lon;timestamp;P1;durP1;ratioP1;P2;durP2;ratioP2
43646;SDS011;56152;49.996;18.980;2023-03-26T00:01:36;3.20;;;2.25;;
43646;SDS011;56152;49.996;18.980;2023-03-26T00:06:39;2.85;;;2.13;;
43646;SDS011;56152;49.996;18.980;2023-03-26T00:11:45;3.35;;;2.30;;
43646;SDS011;56152;49.996;18.980;2023-03-26T00:16:47;4.95;;;2.25;;
43646;SDS011;56152;49.996;18.980;2023-03-26T00:21:49;3.70;;;2.30;;
43646;SDS011;56152;49.996;18.980;2023-03-26T00:26:54;4.30;;;2.17;;
43646;SDS011;56152;49.996;18.980;2023-03-26T00:32:00;3.17;;;2.08;;
43646;SDS011;56152;49.996;18.980;2023-03-26T00:37:02;3.95;;;2.10;;
43646;SDS011;56152;49.996;18.980;2023-03-26T00:42:06;4.07;;;2.40;;
43646;SDS011;56152;49.996;18.980;2023-03-26T00:47:08;4.75;;;2.15;;
43646;SDS011;56152;49.996;18.980;2023-03-26T00:52:10;4.50;;;1.90;;
43646;SDS011;56152;49.996;18.980;2023-03-26T00:57:15;5.50;;;2.30;;
43646;SDS011;56152;49.996;18.980;2023-03-26T01:02:20;5.95;;;3.22;;
43646;SDS011;56152;49.996;18.980;2023-03-26T01:07:24;4.85;;;2.38;;
43646;SDS011;56152;49.996;18.980;2023-03-26T01:12:35;5.47;;;2.20;;
43646;SDS011;56152;49.996;18.980;2023-03-26T01:17:38;4.78;;;2.60;;
43646;SDS011;56152;49.996;18.980;2023-03-26T01:22:44;4.40;;;2.20;;
43646;SDS011;56152;49.996;18.980;2023-03-26T01:27:50;4.15;;;2.30;;
43646;SDS011;56152;49.996;18.980;2023-03-26T01:32:57;3.53;;;2.10;;
43646;SDS011;56152;49.996;18.980;2023-03-26T01:38:09;3.90;;;2.10;;
43646;SDS011;56152;49.996;18.980;2023-03-26T01:43:27;5.30;;;2.47;;
43646;SDS011;56152;49.996;18.980;2023-03-26T01:48:34;4.50;;;2.28;;
43646;SDS011;56152;49.996;18.980;2023-03-26T01:53:39;3.15;;;1.88;;
43646;SDS011;56152;49.996;18.980;2023-03-26T01:58:50;5.30;;;2.13;;
43646;SDS011;56152;49.996;18.980;2023-03-26T02:04:00;6.38;;;2.22;;
43646;SDS011;56152;49.996;18.980;2023-03-26T02:09:09;4.35;;;2.20;;
43646;SDS011;56152;49.996;18.980;2023-03-26T02:14:18;3.90;;;2.35;;
43646;SDS011;56152;49.996;18.980;2023-03-26T02:19:23;3.28;;;1.95;;
43646;SDS011;56152;49.996;18.980;2023-03-26T02:24:26;4.15;;;2.20;;
43646;SDS011;56152;49.996;18.980;2023-03-26T02:29:30;7.00;;;2.05;;
43646;SDS011;56152;49.996;18.980;2023-03-26T02:34:36;4.47;;;1.98;;
43646;SDS011;56152;49.996;18.980;2023-03-26T02:39:42;4.25;;;1.80;;
43646;SDS011;56152;49.996;18.980;2023-03-26T02:44:45;4.80;;;2.40;;
43646;SDS011;56152;49.996;18.980;2023-03-26T02:49:48;5.45;;;2.03;;
43646;SDS011;56152;49.996;18.980;2023-03-26T02:54:50;4.40;;;2.00;;
43646;SDS011;56152;49.996;18.980;2023-03-26T02:59:53;3.47;;;1.90;;
43646;SDS011;56152;49.996;18.980;2023-03-26T03:04:56;4.18;;;2.30;;
43646;SDS011;56152;49.996;18.980;2023-03-26T03:10:00;4.00;;;1.90;;
43646;SDS011;56152;49.996;18.980;2023-03-26T03:15:05;4.13;;;1.95;;
43646;SDS011;56152;49.996;18.980;2023-03-26T03:20:08;4.60;;;2.20;;
43646;SDS011;56152;49.996;18.980;2023-03-26T03:25:15;2.65;;;1.75;;
43646;SDS011;56152;49.996;18.980;2023-03-26T03:30:23;4.60;;;2.38;;
43646;SDS011;56152;49.996;18.980;2023-03-26T03:35:26;6.13;;;2.30;;
43646;SDS011;56152;49.996;18.980;2023-03-26T03:40:28;4.78;;;1.98;;
43646;SDS011;56152;49.996;18.980;2023-03-26T03:45:35;3.67;;;1.70;;
43646;SDS011;56152;49.996;18.980;2023-03-26T03:50:37;6.35;;;2.40;;
43646;SDS011;56152;49.996;18.980;2023-03-26T03:55:39;3.33;;;1.85;;
43646;SDS011;56152;49.996;18.980;2023-03-26T04:00:43;3.33;;;1.98;;
43646;SDS011;56152;49.996;18.980;2023-03-26T04:05:45;6.18;;;1.90;;
43646;SDS011;56152;49.996;18.980;2023-03-26T04:10:53;5.53;;;2.00;;
43646;SDS011;56152;49.996;18.980;2023-03-26T04:15:58;5.40;;;2.22;;
43646;SDS011;56152;49.996;18.980;2023-03-26T04:21:00;3.80;;;2.05;;
43646;SDS011;56152;49.996;18.980;2023-03-26T04:26:03;4.07;;;1.60;;
43646;SDS011;56152;49.996;18.980;2023-03-26T04:31:11;4.30;;;1.70;;
43646;SDS011;56152;49.996;18.980;2023-03-26T04:36:15;3.15;;;1.75;;
43646;SDS011;56152;49.996;18.980;2023-03-26T04:41:17;2.80;;;1.45;;
43646;SDS011;56152;49.996;18.980;2023-03-26T04:46:23;6.13;;;1.92;;
43646;SDS011;56152;49.996;18.980;2023-03-26T04:51:26;4.43;;;1.98;;
43646;SDS011;56152;49.996;18.980;2023-03-26T04:56:39;7.47;;;1.95;;
43646;SDS011;56152;49.996;18.980;2023-03-26T05:01:50;4.45;;;1.90;;
43646;SDS011;56152;49.996;18.980;2023-03-26T05:06:52;4.13;;;1.92;;
43646;SDS011;56152;49.996;18.980;2023-03-26T05:11:55;5.03;;;2.00;;
43646;SDS011;56152;49.996;18.980;2023-03-26T05:17:00;9.63;;;2.17;;
43646;SDS011;56152;49.996;18.980;2023-03-26T05:22:04;2.30;;;1.50;;
43646;SDS011;56152;49.996;18.980;2023-03-26T05:27:10;4.72;;;1.60;;
43646;SDS011;56152;49.996;18.980;2023-03-26T05:32:17;3.25;;;1.60;;
43646;SDS011;56152;49.996;18.980;2023-03-26T05:37:20;3.95;;;1.80;;
43646;SDS011;56152;49.996;18.980;2023-03-26T05:42:24;3.13;;;1.50;;
43646;SDS011;56152;49.996;18.980;2023-03-26T05:47:43;3.38;;;1.77;;
43646;SDS011;56152;49.996;18.980;2023-03-26T05:52:48;3.40;;;1.77;;
43646;SDS011;56152;49.996;18.980;2023-03-26T05:58:02;4.30;;;1.70;;
43646;SDS011;56152;49.996;18.980;2023-03-26T06:03:09;4.28;;;1.60;;
43646;SDS011;56152;49.996;18.980;2023-03-26T06:08:11;3.95;;;1.60;;
43646;SDS011;56152;49.996;18.980;2023-03-26T06:13:13;4.70;;;1.63;;
43646;SDS011;56152;49.996;18.980;2023-03-26T06:18:18;3.28;;;1.70;;
43646;SDS011;56152;49.996;18.980;2023-03-26T06:23:20;5.78;;;1.80;;
43646;SDS011;56152;49.996;18.980;2023-03-26T06:28:22;5.93;;;2.28;;
43646;SDS011;56152;49.996;18.980;2023-03-26T06:33:28;8.68;;;2.50;;
43646;SDS011;56152;49.996;18.980;2023-03-26T06:38:30;4.05;;;2.08;;
43646;SDS011;56152;49.996;18.980;2023-03-26T06:43:32;4.80;;;1.88;;
43646;SDS011;56152;49.996;18.980;2023-03-26T06:48:37;4.90;;;2.75;;
43646;SDS011;56152;49.996;18.980;2023-03-26T06:53:39;6.78;;;2.10;;
43646;SDS011;56152;49.996;18.980;2023-03-26T06:58:42;4.15;;;2.10;;
43646;SDS011;56152;49.996;18.980;2023-03-26T07:03:45;3.33;;;1.92;;
43646;SDS011;56152;49.996;18.980;2023-03-26T07:08:47;8.95;;;1.80;;
43646;SDS011;56152;49.996;18.980;2023-03-26T07:13:49;5.00;;;1.98;;
43646;SDS011;56152;49.996;18.980;2023-03-26T07:18:58;3.70;;;1.80;;
43646;SDS011;56152;49.996;18.980;2023-03-26T07:24:05;4.88;;;1.73;;
43646;SDS011;56152;49.996;18.980;2023-03-26T07:29:11;4.13;;;2.00;;
43646;SDS011;56152;49.996;18.980;2023-03-26T07:34:25;3.97;;;1.80;;
43646;SDS011;56152;49.996;18.980;2023-03-26T07:39:39;3.75;;;1.90;;
43646;SDS011;56152;49.996;18.980;2023-03-26T07:44:50;4.20;;;2.10;;
43646;SDS011;56152;49.996;18.980;2023-03-26T07:50:02;5.20;;;2.38;;
43646;SDS011;56152;49.996;18.980;2023-03-26T07:55:06;5.22;;;2.88;;
43646;SDS011;56152;49.996;18.980;2023-03-26T08:00:13;3.47;;;1.80;;
43646;SDS011;56152;49.996;18.980;2023-03-26T08:05:25;4.43;;;1.83;;
43646;SDS011;56152;49.996;18.980;2023-03-26T08:10:32;6.45;;;2.28;;
43646;SDS011;56152;49.996;18.980;2023-03-26T08:15:40;4.95;;;2.08;;
43646;SDS011;56152;49.996;18.980;2023-03-26T08:20:50;4.55;;;2.17;;
43646;SDS011;56152;49.996;18.980;2023-03-26T08:26:10;5.20;;;2.20;;
43646;SDS011;56152;49.996;18.980;2023-03-26T08:31:16;6.57;;;2.25;;
43646;SDS011;56152;49.996;18.980;2023-03-26T08:36:26;6.57;;;2.03;;
43646;SDS011;56152;49.996;18.980;2023-03-26T08:41:43;3.03;;;1.83;;
43646;SDS011;56152;49.996;18.980;2023-03-26T08:47:23;5.72;;;2.83;;
43646;SDS011;56152;49.996;18.980;2023-03-26T09:04:26;4.90;;;2.20;;
43646;SDS011;56152;49.996;18.980;2023-03-26T09:21:37;5.00;;;2.25;;
43646;SDS011;56152;49.996;18.980;2023-03-26T09:27:07;6.60;;;2.30;;
43646;SDS011;56152;49.996;18.980;2023-03-26T09:38:13;6.13;;;2.85;;
43646;SDS011;56152;49.996;18.980;2023-03-26T09:43:41;4.35;;;2.08;;
43646;SDS011;56152;49.996;18.980;2023-03-26T09:49:11;4.45;;;2.40;;
43646;SDS011;56152;49.996;18.980;2023-03-26T10:00:21;6.40;;;1.75;;
43646;SDS011;56152;49.996;18.980;2023-03-26T10:05:38;4.97;;;1.92;;
43646;SDS011;56152;49.996;18.980;2023-03-26T10:10:55;4.38;;;1.65;;
43646;SDS011;56152;49.996;18.980;2023-03-26T10:16:05;4.78;;;2.00;;
43646;SDS011;56152;49.996;18.980;2023-03-26T10:21:21;4.85;;;2.10;;
43646;SDS011;56152;49.996;18.980;2023-03-26T10:26:38;3.67;;;1.73;;
43646;SDS011;56152;49.996;18.980;2023-03-26T10:31:58;5.78;;;1.77;;
43646;SDS011;56152;49.996;18.980;2023-03-26T10:37:12;4.78;;;1.90;;
43646;SDS011;56152;49.996;18.980;2023-03-26T10:53:27;3.43;;;1.73;;
43646;SDS011;56152;49.996;18.980;2023-03-26T10:58:35;5.15;;;1.90;;
43646;SDS011;56152;49.996;18.980;2023-03-26T11:03:48;5.05;;;2.05;;
43646;SDS011;56152;49.996;18.980;2023-03-26T11:09:00;5.25;;;2.28;;
43646;SDS011;56152;49.996;18.980;2023-03-26T11:14:16;6.72;;;2.30;;
43646;SDS011;56152;49.996;18.980;2023-03-26T11:19:26;7.90;;;2.75;;
43646;SDS011;56152;49.996;18.980;2023-03-26T11:30:02;3.58;;;1.33;;
43646;SDS011;56152;49.996;18.980;2023-03-26T11:35:24;4.85;;;1.75;;
43646;SDS011;56152;49.996;18.980;2023-03-26T11:40:32;2.03;;;1.33;;
43646;SDS011;56152;49.996;18.980;2023-03-26T11:45:38;3.00;;;1.45;;
43646;SDS011;56152;49.996;18.980;2023-03-26T11:50:49;4.57;;;1.70;;
43646;SDS011;56152;49.996;18.980;2023-03-26T11:55:58;5.03;;;2.22;;
43646;SDS011;56152;49.996;18.980;2023-03-26T12:01:11;3.13;;;1.70;;
43646;SDS011;56152;49.996;18.980;2023-03-26T12:06:23;2.50;;;1.77;;
43646;SDS011;56152;49.996;18.980;2023-03-26T12:11:28;6.13;;;1.73;;
43646;SDS011;56152;49.996;18.980;2023-03-26T12:16:36;4.25;;;1.52;;
43646;SDS011;56152;49.996;18.980;2023-03-26T12:21:45;4.60;;;2.00;;
43646;SDS011;56152;49.996;18.980;2023-03-26T12:26:50;4.43;;;1.90;;
43646;SDS011;56152;49.996;18.980;2023-03-26T12:32:05;5.88;;;2.25;;
43646;SDS011;56152;49.996;18.980;2023-03-26T12:42:38;3.92;;;2.25;;
43646;SDS011;56152;49.996;18.980;2023-03-26T12:47:42;4.10;;;1.48;;
43646;SDS011;56152;49.996;18.980;2023-03-26T12:52:58;4.80;;;1.77;;
43646;SDS011;56152;49.996;18.980;2023-03-26T12:58:19;4.50;;;2.15;;
43646;SDS011;56152;49.996;18.980;2023-03-26T13:03:49;3.63;;;1.83;;
43646;SDS011;56152;49.996;18.980;2023-03-26T13:09:26;3.28;;;1.42;;
43646;SDS011;56152;49.996;18.980;2023-03-26T13:14:50;4.15;;;1.90;;
43646;SDS011;56152;49.996;18.980;2023-03-26T13:20:09;3.92;;;1.60;;
43646;SDS011;56152;49.996;18.980;2023-03-26T13:25:22;2.92;;;1.30;;
43646;SDS011;56152;49.996;18.980;2023-03-26T13:30:33;3.20;;;1.50;;
43646;SDS011;56152;49.996;18.980;2023-03-26T13:35:42;1.60;;;1.10;;
43646;SDS011;56152;49.996;18.980;2023-03-26T13:40:54;1.67;;;1.23;;
43646;SDS011;56152;49.996;18.980;2023-03-26T13:46:05;2.58;;;1.35;;
43646;SDS011;56152;49.996;18.980;2023-03-26T13:51:15;4.45;;;1.50;;
43646;SDS011;56152;49.996;18.980;2023-03-26T13:56:24;5.27;;;1.60;;
43646;SDS011;56152;49.996;18.980;2023-03-26T14:01:30;4.45;;;1.58;;
43646;SDS011;56152;49.996;18.980;2023-03-26T14:06:41;2.88;;;1.23;;
43646;SDS011;56152;49.996;18.980;2023-03-26T14:11:59;5.68;;;2.55;;
43646;SDS011;56152;49.996;18.980;2023-03-26T14:17:22;3.35;;;1.48;;
43646;SDS011;56152;49.996;18.980;2023-03-26T14:22:29;3.90;;;1.65;;
43646;SDS011;56152;49.996;18.980;2023-03-26T14:27:47;4.18;;;1.90;;
43646;SDS011;56152;49.996;18.980;2023-03-26T14:33:04;4.55;;;2.13;;
43646;SDS011;56152;49.996;18.980;2023-03-26T14:38:39;3.28;;;1.42;;
43646;SDS011;56152;49.996;18.980;2023-03-26T14:44:04;2.10;;;1.50;;
43646;SDS011;56152;49.996;18.980;2023-03-26T14:55:35;3.75;;;2.15;;
43646;SDS011;56152;49.996;18.980;2023-03-26T15:12:17;4.85;;;2.30;;
43646;SDS011;56152;49.996;18.980;2023-03-26T15:45:41;3.22;;;2.10;;
43646;SDS011;56152;49.996;18.980;2023-03-26T15:50:52;4.03;;;1.92;;
43646;SDS011;56152;49.996;18.980;2023-03-26T15:56:11;5.55;;;2.03;;
43646;SDS011;56152;49.996;18.980;2023-03-26T16:01:25;8.82;;;3.83;;
43646;SDS011;56152;49.996;18.980;2023-03-26T16:06:37;7.07;;;3.38;;
43646;SDS011;56152;49.996;18.980;2023-03-26T16:11:52;6.80;;;3.53;;
43646;SDS011;56152;49.996;18.980;2023-03-26T16:16:57;7.90;;;3.10;;
43646;SDS011;56152;49.996;18.980;2023-03-26T16:22:02;5.47;;;2.90;;
43646;SDS011;56152;49.996;18.980;2023-03-26T16:32:34;9.80;;;4.43;;
43646;SDS011;56152;49.996;18.980;2023-03-26T16:37:43;12.75;;;5.72;;
43646;SDS011;56152;49.996;18.980;2023-03-26T16:42:49;15.40;;;7.07;;
43646;SDS011;56152;49.996;18.980;2023-03-26T16:47:57;12.32;;;5.28;;
43646;SDS011;56152;49.996;18.980;2023-03-26T16:53:12;11.50;;;4.30;;
43646;SDS011;56152;49.996;18.980;2023-03-26T16:58:27;6.60;;;3.85;;
43646;SDS011;56152;49.996;18.980;2023-03-26T17:03:37;8.35;;;4.85;;
43646;SDS011;56152;49.996;18.980;2023-03-26T17:08:52;14.25;;;7.43;;
43646;SDS011;56152;49.996;18.980;2023-03-26T17:14:08;17.25;;;7.38;;
43646;SDS011;56152;49.996;18.980;2023-03-26T17:19:23;16.35;;;7.03;;
43646;SDS011;56152;49.996;18.980;2023-03-26T17:24:41;13.00;;;6.25;;
43646;SDS011;56152;49.996;18.980;2023-03-26T17:29:55;9.90;;;4.72;;
43646;SDS011;56152;49.996;18.980;2023-03-26T17:35:08;20.33;;;6.28;;
43646;SDS011;56152;49.996;18.980;2023-03-26T17:45:50;12.55;;;5.28;;
43646;SDS011;56152;49.996;18.980;2023-03-26T17:50:56;15.32;;;5.95;;
43646;SDS011;56152;49.996;18.980;2023-03-26T17:56:04;21.55;;;9.77;;
43646;SDS011;56152;49.996;18.980;2023-03-26T18:01:16;17.20;;;7.32;;
43646;SDS011;56152;49.996;18.980;2023-03-26T18:12:01;13.77;;;4.10;;
43646;SDS011;56152;49.996;18.980;2023-03-26T18:17:17;7.82;;;3.25;;
43646;SDS011;56152;49.996;18.980;2023-03-26T18:22:21;9.20;;;4.38;;
43646;SDS011;56152;49.996;18.980;2023-03-26T18:27:27;8.50;;;4.38;;
43646;SDS011;56152;49.996;18.980;2023-03-26T18:32:37;6.45;;;3.08;;
43646;SDS011;56152;49.996;18.980;2023-03-26T18:37:52;6.78;;;3.00;;
43646;SDS011;56152;49.996;18.980;2023-03-26T18:42:59;8.02;;;3.53;;
43646;SDS011;56152;49.996;18.980;2023-03-26T18:48:03;11.00;;;5.20;;
43646;SDS011;56152;49.996;18.980;2023-03-26T18:53:13;16.98;;;6.97;;
43646;SDS011;56152;49.996;18.980;2023-03-26T18:58:23;25.98;;;8.55;;
43646;SDS011;56152;49.996;18.980;2023-03-26T19:03:29;47.28;;;15.63;;
43646;SDS011;56152;49.996;18.980;2023-03-26T19:08:36;30.67;;;12.95;;
43646;SDS011;56152;49.996;18.980;2023-03-26T19:13:42;28.80;;;13.88;;
43646;SDS011;56152;49.996;18.980;2023-03-26T19:18:50;21.92;;;9.85;;
43646;SDS011;56152;49.996;18.980;2023-03-26T19:23:53;20.92;;;8.27;;
43646;SDS011;56152;49.996;18.980;2023-03-26T19:28:59;12.65;;;6.13;;
43646;SDS011;56152;49.996;18.980;2023-03-26T19:34:02;19.85;;;8.13;;
43646;SDS011;56152;49.996;18.980;2023-03-26T19:39:20;21.95;;;10.60;;
43646;SDS011;56152;49.996;18.980;2023-03-26T19:44:26;28.05;;;12.30;;
43646;SDS011;56152;49.996;18.980;2023-03-26T19:49:31;31.00;;;14.95;;
43646;SDS011;56152;49.996;18.980;2023-03-26T19:54:45;29.20;;;13.35;;
43646;SDS011;56152;49.996;18.980;2023-03-26T19:59:52;25.90;;;12.70;;
43646;SDS011;56152;49.996;18.980;2023-03-26T20:04:54;23.20;;;11.20;;
43646;SDS011;56152;49.996;18.980;2023-03-26T20:09:57;28.52;;;12.93;;
43646;SDS011;56152;49.996;18.980;2023-03-26T20:15:04;22.80;;;11.75;;
43646;SDS011;56152;49.996;18.980;2023-03-26T20:20:15;214.27;;;72.10;;
43646;SDS011;56152;49.996;18.980;2023-03-26T20:25:19;85.55;;;35.28;;
43646;SDS011;56152;49.996;18.980;2023-03-26T20:30:25;58.05;;;26.65;;
43646;SDS011;56152;49.996;18.980;2023-03-26T20:35:28;86.93;;;38.97;;
43646;SDS011;56152;49.996;18.980;2023-03-26T20:40:36;70.68;;;33.47;;
43646;SDS011;56152;49.996;18.980;2023-03-26T20:45:46;25.23;;;11.70;;
43646;SDS011;56152;49.996;18.980;2023-03-26T20:50:48;20.63;;;8.88;;
43646;SDS011;56152;49.996;18.980;2023-03-26T20:55:51;42.15;;;13.00;;
43646;SDS011;56152;49.996;18.980;2023-03-26T21:00:57;53.80;;;16.15;;
43646;SDS011;56152;49.996;18.980;2023-03-26T21:06:00;25.25;;;10.27;;
43646;SDS011;56152;49.996;18.980;2023-03-26T21:11:03;15.88;;;8.18;;
43646;SDS011;56152;49.996;18.980;2023-03-26T21:16:17;16.23;;;7.43;;
43646;SDS011;56152;49.996;18.980;2023-03-26T21:21:25;15.45;;;7.43;;
43646;SDS011;56152;49.996;18.980;2023-03-26T21:26:40;13.80;;;6.75;;
43646;SDS011;56152;49.996;18.980;2023-03-26T21:31:52;20.15;;;10.00;;
43646;SDS011;56152;49.996;18.980;2023-03-26T21:36:55;22.00;;;11.77;;
43646;SDS011;56152;49.996;18.980;2023-03-26T21:41:57;58.35;;;27.48;;
43646;SDS011;56152;49.996;18.980;2023-03-26T21:47:03;33.65;;;19.50;;
43646;SDS011;56152;49.996;18.980;2023-03-26T21:52:08;53.67;;;26.85;;
43646;SDS011;56152;49.996;18.980;2023-03-26T21:57:15;38.88;;;21.50;;
43646;SDS011;56152;49.996;18.980;2023-03-26T22:02:38;24.60;;;14.68;;
43646;SDS011;56152;49.996;18.980;2023-03-26T22:07:55;27.08;;;15.30;;
43646;SDS011;56152;49.996;18.980;2023-03-26T22:12:59;29.33;;;14.07;;
43646;SDS011;56152;49.996;18.980;2023-03-26T22:18:04;29.30;;;15.65;;
43646;SDS011;56152;49.996;18.980;2023-03-26T22:23:06;24.88;;;11.93;;
43646;SDS011;56152;49.996;18.980;2023-03-26T22:28:09;16.23;;;9.68;;
43646;SDS011;56152;49.996;18.980;2023-03-26T22:33:15;21.80;;;12.50;;
43646;SDS011;56152;49.996;18.980;2023-03-26T22:38:18;26.95;;;15.02;;
43646;SDS011;56152;49.996;18.980;2023-03-26T22:43:23;24.55;;;14.07;;
43646;SDS011;56152;49.996;18.980;2023-03-26T22:48:28;29.38;;;14.15;;
43646;SDS011;56152;49.996;18.980;2023-03-26T22:53:31;15.98;;;10.00;;
43646;SDS011;56152;49.996;18.980;2023-03-26T22:58:33;36.25;;;17.00;;
43646;SDS011;56152;49.996;18.980;2023-03-26T23:03:40;34.53;;;16.25;;
43646;SDS011;56152;49.996;18.980;2023-03-26T23:08:42;22.30;;;11.40;;
43646;SDS011;56152;49.996;18.980;2023-03-26T23:13:45;25.02;;;12.75;;
43646;SDS011;56152;49.996;18.980;2023-03-26T23:18:50;26.20;;;12.55;;
43646;SDS011;56152;49.996;18.980;2023-03-26T23:23:52;26.67;;;15.82;;
43646;SDS011;56152;49.996;18.980;2023-03-26T23:28:55;26.15;;;14.20;;
43646;SDS011;56152;49.996;18.980;2023-03-26T23:34:00;25.80;;;14.15;;
43646;SDS011;56152;49.996;18.980;2023-03-26T23:39:02;26.05;;;14.82;;
43646;SDS011;56152;49.996;18.980;2023-03-26T23:44:08;22.92;;;12.90;;
43646;SDS011;56152;49.996;18.980;2023-03-26T23:49:15;24.33;;;13.40;;
43646;SDS011;56152;49.996;18.980;2023-03-26T23:54:20;27.98;;;18.92;;
43646;SDS011;56152;49.996;18.980;2023-03-26T23:59:24;25.40;;;16.20;;
